Time;durP1;ratioP1;P1;durP2;ratioP2;P2;SDS_P1;SDS_P2;PMS_P1;PMS_P2;Temp;Humidity;BMP_temperature;BMP_pressure;BME280_temperature;BME280_humidity;BME280_pressure;Samples;Min_cycle;Max_cycle;Signal;HPM_P1;HPM_P2
2023/01/26 00:00:51;;;;;;;;;;;20.40;58.60;;;;;;1521983;76;1176;-69
2023/01/26 00:02:53;;;;;;;;;;;20.40;59.20;;;;;;1518827;76;703;-70
2023/01/26 00:04:55;;;;;;;;;;;20.40;59.40;;;;;;1518543;76;767;-72
2023/01/26 00:06:57;;;;;;;;;;;20.40;59.10;;;;;;1521120;76;750;-69
2023/01/26 00:08:59;;;;;;;;;;;20.30;59.70;;;;;;1522744;76;777;-68
2023/01/26 00:11:02;;;;;;;;;;;20.30;59.60;;;;;;1520446;76;1115;-68
2023/01/26 00:13:05;;;;;;;;;;;20.30;59.50;;;;;;1514770;76;705;-68
2023/01/26 00:15:07;;;;;;;;;;;20.30;58.90;;;;;;1519688;78;647;-70
2023/01/26 00:17:09;;;;;;;;;;;20.40;58.80;;;;;;1513055;78;709;-68
2023/01/26 00:19:11;;;;;;;;;;;20.50;59.10;;;;;;1516849;76;1941;-69
2023/01/26 00:21:14;;;;;;;;;;;20.50;58.50;;;;;;1518690;74;2083;-70
2023/01/26 00:23:16;;;;;;;;;;;20.60;58.60;;;;;;1545033;74;804;-70
2023/01/26 00:25:18;;;;;;;;;;;20.60;58.30;;;;;;1537511;76;696;-70
2023/01/26 00:27:20;;;;;;;;;;;20.70;58.10;;;;;;1541164;76;708;-71
2023/01/26 00:29:22;;;;;;;;;;;20.70;57.40;;;;;;1541053;76;1567;-71
2023/01/26 00:31:24;;;;;;;;;;;20.70;57.20;;;;;;1541254;76;1197;-72
2023/01/26 00:33:26;;;;;;;;;;;20.70;57.10;;;;;;1541154;76;754;-70
2023/01/26 00:35:28;;;;;;;;;;;20.80;57.00;;;;;;1540594;76;752;-72
2023/01/26 00:37:30;;;;;;;;;;;20.70;56.90;;;;;;1536496;76;797;-71
2023/01/26 00:39:32;;;;;;;;;;;20.70;56.80;;;;;;1540980;76;1941;-71
2023/01/26 00:43:53;;;;;;;;;;;20.80;56.90;;;;;;1528975;76;1651;-73
2023/01/26 00:45:55;;;;;;;;;;;20.80;57.00;;;;;;1533778;76;740;-72
2023/01/26 00:47:59;;;;;;;;;;;20.70;58.20;;;;;;1550505;75;738;-72
2023/01/26 00:50:01;;;;;;;;;;;20.60;58.20;;;;;;1519490;78;790;-75
2023/01/26 00:52:03;;;;;;;;;;;20.60;58.30;;;;;;1554709;75;1131;-71
2023/01/26 00:54:04;;;;;;;;;;;20.60;58.10;;;;;;1548770;75;749;-71
2023/01/26 00:56:07;;;;;;;;;;;20.70;58.20;;;;;;1554979;75;785;-72
2023/01/26 00:58:09;;;;;;;;;;;20.70;57.40;;;;;;1549873;76;749;-71
2023/01/26 01:00:15;;;;;;;;;;;20.70;57.00;;;;;;1556857;75;1947;-72
2023/01/26 01:02:17;;;;;;;;;;;20.70;56.80;;;;;;1543959;75;1165;-71
2023/01/26 01:04:19;;;;;;;;;;;20.80;56.60;;;;;;1545561;75;740;-71
2023/01/26 01:06:21;;;;;;;;;;;20.80;56.40;;;;;;1561835;75;717;-71
2023/01/26 01:08:23;;;;;;;;;;;20.80;56.40;;;;;;1551994;76;594;-71
2023/01/26 01:10:29;;;;;;;;;;;20.80;56.50;;;;;;1545525;75;800;-72
2023/01/26 01:12:28;;;;;;;;;;;20.80;56.30;;;;;;1552582;75;1215;-70
2023/01/26 01:14:30;;;;;;;;;;;20.80;56.40;;;;;;1552659;75;769;-72
2023/01/26 01:16:32;;;;;;;;;;;20.80;56.30;;;;;;1552512;75;741;-71
2023/01/26 01:18:34;;;;;;;;;;;20.80;56.30;;;;;;1551458;75;698;-71
2023/01/26 01:20:37;;;;;;;;;;;20.80;56.30;;;;;;1548749;75;1921;-71
2023/01/26 01:22:39;;;;;;;;;;;20.80;56.20;;;;;;1551148;75;1673;-71
2023/01/26 01:24:41;;;;;;;;;;;20.80;56.20;;;;;;1548467;75;1382;-71
2023/01/26 01:26:43;;;;;;;;;;;20.80;56.20;;;;;;1557215;75;717;-72
2023/01/26 01:28:45;;;;;;;;;;;20.80;56.20;;;;;;1550099;75;708;-72
2023/01/26 01:30:47;;;;;;;;;;;20.80;56.30;;;;;;1532248;76;715;-71
2023/01/26 01:32:50;;;;;;;;;;;20.80;56.40;;;;;;1533762;75;1104;-71
2023/01/26 01:34:52;;;;;;;;;;;20.80;56.40;;;;;;1543484;75;775;-71
2023/01/26 01:36:54;;;;;;;;;;;20.80;56.50;;;;;;1540820;75;787;-72
2023/01/26 01:38:56;;;;;;;;;;;20.80;56.60;;;;;;1542105;75;1943;-70
2023/01/26 01:40:57;;;;;;;;;;;20.80;56.80;;;;;;1548090;76;830;-72
2023/01/26 01:42:59;;;;;;;;;;;20.80;56.70;;;;;;1543935;76;1086;-72
2023/01/26 01:45:20;;;;;;;;;;;20.80;56.70;;;;;;1541381;75;758;-73
2023/01/26 01:47:24;;;;;;;;;;;20.70;56.80;;;;;;1543865;75;783;-73
2023/01/26 01:49:27;;;;;;;;;;;20.70;56.70;;;;;;1546435;77;934;-72
2023/01/26 01:51:37;;;;;;;;;;;20.70;56.60;;;;;;1541434;76;1153;-71
2023/01/26 01:53:40;;;;;;;;;;;20.80;56.70;;;;;;1547207;76;835;-72
2023/01/26 01:55:42;;;;;;;;;;;20.70;56.70;;;;;;1538426;75;700;-71
2023/01/26 01:57:45;;;;;;;;;;;20.80;56.50;;;;;;1541745;76;724;-71
2023/01/26 01:59:49;;;;;;;;;;;20.80;56.60;;;;;;1543511;75;2060;-72
2023/01/26 02:01:51;;;;;;;;;;;20.70;56.50;;;;;;1546199;75;1133;-73
2023/01/26 02:03:54;;;;;;;;;;;20.80;56.50;;;;;;1537063;76;735;-73
2023/01/26 02:06:06;;;;;;;;;;;20.80;56.40;;;;;;1555234;75;648;-71
2023/01/26 02:08:08;;;;;;;;;;;20.80;56.50;;;;;;1553733;75;726;-71
2023/01/26 02:10:19;;;;;;;;;;;20.70;56.50;;;;;;1553068;75;723;-70
2023/01/26 02:12:21;;;;;;;;;;;20.70;56.50;;;;;;1553696;75;1157;-72
2023/01/26 02:14:23;;;;;;;;;;;20.70;56.50;;;;;;1547685;76;773;-71
2023/01/26 02:16:25;;;;;;;;;;;20.70;56.50;;;;;;1549299;75;737;-71
2023/01/26 02:18:27;;;;;;;;;;;20.70;56.50;;;;;;1544760;76;784;-70
2023/01/26 02:20:34;;;;;;;;;;;20.70;56.50;;;;;;1545246;75;1921;-70
2023/01/26 02:22:45;;;;;;;;;;;20.80;56.60;;;;;;1541208;75;1679;-70
2023/01/26 02:24:47;;;;;;;;;;;20.80;56.70;;;;;;1545440;76;525;-71
2023/01/26 02:26:49;;;;;;;;;;;20.70;56.80;;;;;;1547560;76;746;-72
2023/01/26 02:28:51;;;;;;;;;;;20.70;56.90;;;;;;1540924;75;739;-72
2023/01/26 02:30:53;;;;;;;;;;;20.60;56.80;;;;;;1544432;75;720;-71
2023/01/26 02:32:55;;;;;;;;;;;20.70;56.80;;;;;;1545642;76;1133;-72
2023/01/26 02:34:57;;;;;;;;;;;20.70;56.80;;;;;;1545939;76;827;-72
2023/01/26 02:36:59;;;;;;;;;;;20.70;56.80;;;;;;1538477;75;762;-72
2023/01/26 02:39:08;;;;;;;;;;;20.70;56.70;;;;;;1545964;76;784;-72
2023/01/26 02:42:37;;;;;;;;;;;20.70;56.70;;;;;;1535752;75;1143;-74
2023/01/26 02:43:17;;;;;;;;;;;20.70;56.70;;;;;;1527204;75;1449;-72
2023/01/26 02:45:19;;;;;;;;;;;20.70;56.60;;;;;;1534961;75;777;-72
2023/01/26 02:47:21;;;;;;;;;;;20.70;56.60;;;;;;1539292;75;763;-72
2023/01/26 02:51:38;;;;;;;;;;;20.70;56.60;;;;;;1478679;75;1198;-71
2023/01/26 02:53:40;;;;;;;;;;;20.70;56.60;;;;;;1544760;76;691;-70
2023/01/26 02:55:42;;;;;;;;;;;20.70;56.70;;;;;;1542222;75;765;-72
2023/01/26 02:57:44;;;;;;;;;;;20.70;56.60;;;;;;1544871;75;761;-72
2023/01/26 02:59:46;;;;;;;;;;;20.70;56.70;;;;;;1545204;75;1935;-73
2023/01/26 03:01:48;;;;;;;;;;;20.70;57.40;;;;;;1543465;75;1138;-73
2023/01/26 03:03:50;;;;;;;;;;;20.60;57.10;;;;;;1552909;75;752;-72
2023/01/26 03:05:52;;;;;;;;;;;20.50;57.30;;;;;;1549987;75;852;-73
2023/01/26 03:07:54;;;;;;;;;;;20.60;57.30;;;;;;1544491;75;708;-74
2023/01/26 03:09:57;;;;;;;;;;;20.60;57.20;;;;;;1552603;75;831;-73
2023/01/26 03:11:59;;;;;;;;;;;20.60;57.20;;;;;;1549996;75;1150;-72
2023/01/26 03:14:01;;;;;;;;;;;20.60;57.10;;;;;;1552159;75;727;-72
2023/01/26 03:16:05;;;;;;;;;;;20.60;57.30;;;;;;1551506;75;719;-71
2023/01/26 03:27:33;;;;;;;;;;;20.70;57.10;;;;;;1500991;76;1661;-73
2023/01/26 03:29:35;;;;;;;;;;;20.70;56.90;;;;;;1550855;75;992;-73
2023/01/26 03:31:36;;;;;;;;;;;20.70;56.80;;;;;;1543033;76;1147;-73
2023/01/26 03:33:38;;;;;;;;;;;20.70;56.80;;;;;;1523598;77;729;-73
2023/01/26 03:35:40;;;;;;;;;;;20.60;56.80;;;;;;1533455;76;772;-72
2023/01/26 03:37:42;;;;;;;;;;;20.70;56.80;;;;;;1525150;76;739;-72
2023/01/26 03:58:12;;;;;;;;;;;20.70;56.80;;;;;;1536599;76;735;-73
2023/01/26 04:00:14;;;;;;;;;;;20.60;56.60;;;;;;1546677;76;1939;-72
2023/01/26 04:09:15;;;;;;;;;;;20.60;56.70;;;;;;1548014;75;1644;-72
2023/01/26 04:11:17;;;;;;;;;;;20.70;56.80;;;;;;1546790;75;1103;-74
2023/01/26 04:22:44;;;;;;;;;;;20.60;56.50;;;;;;1535946;75;1640;-74
2023/01/26 04:24:46;;;;;;;;;;;20.60;56.50;;;;;;1541851;76;771;-72
2023/01/26 04:26:48;;;;;;;;;;;20.60;56.50;;;;;;1523684;76;808;-73
2023/01/26 04:28:50;;;;;;;;;;;20.60;56.80;;;;;;1540725;76;745;-73
2023/01/26 04:30:52;;;;;;;;;;;20.70;57.00;;;;;;1536391;76;868;-73
2023/01/26 04:32:53;;;;;;;;;;;20.60;56.90;;;;;;1537183;76;1159;-73
2023/01/26 04:34:55;;;;;;;;;;;20.60;57.10;;;;;;1542392;76;683;-70
2023/01/26 04:36:57;;;;;;;;;;;20.60;57.50;;;;;;1529778;76;720;-73
2023/01/26 04:38:59;;;;;;;;;;;20.60;57.40;;;;;;1539052;76;729;-73
2023/01/26 04:41:01;;;;;;;;;;;20.50;58.40;;;;;;1537200;75;1971;-74
2023/01/26 04:43:03;;;;;;;;;;;20.50;58.40;;;;;;1533119;76;1079;-74
2023/01/26 04:45:05;;;;;;;;;;;20.50;58.60;;;;;;1540977;76;694;-73
2023/01/26 04:47:07;;;;;;;;;;;20.50;59.10;;;;;;1538478;76;755;-73
2023/01/26 04:49:09;;;;;;;;;;;20.40;58.90;;;;;;1539824;76;784;-74
2023/01/26 04:51:12;;;;;;;;;;;20.40;58.80;;;;;;1560365;74;1140;-73
2023/01/26 04:53:14;;;;;;;;;;;20.40;58.70;;;;;;1527527;76;984;-72
2023/01/26 04:55:16;;;;;;;;;;;20.50;59.00;;;;;;1564607;74;718;-72
2023/01/26 04:57:22;;;;;;;;;;;20.40;58.70;;;;;;1551607;76;705;-70
2023/01/26 04:59:24;;;;;;;;;;;20.40;58.90;;;;;;1557992;76;680;-72
2023/01/26 05:01:26;;;;;;;;;;;20.40;59.10;;;;;;1545223;76;1925;-70
2023/01/26 05:03:28;;;;;;;;;;;20.40;58.70;;;;;;1555712;75;739;-72
2023/01/26 05:05:30;;;;;;;;;;;20.40;58.90;;;;;;1557288;75;748;-75
2023/01/26 05:07:32;;;;;;;;;;;20.40;58.60;;;;;;1551975;75;741;-73
2023/01/26 05:09:33;;;;;;;;;;;20.40;58.70;;;;;;1562711;75;726;-74
2023/01/26 05:11:35;;;;;;;;;;;20.50;58.60;;;;;;1559875;76;1137;-72
2023/01/26 05:13:38;;;;;;;;;;;20.40;58.40;;;;;;1560124;75;720;-71
2023/01/26 05:15:40;;;;;;;;;;;20.50;58.20;;;;;;1556240;75;697;-71
2023/01/26 05:17:42;;;;;;;;;;;20.60;58.10;;;;;;1560019;75;717;-71
2023/01/26 05:19:43;;;;;;;;;;;20.60;57.30;;;;;;1553239;75;729;-72
2023/01/26 05:21:45;;;;;;;;;;;20.60;57.10;;;;;;1562386;75;1944;-72
2023/01/26 05:23:47;;;;;;;;;;;20.60;57.20;;;;;;1558200;75;753;-74
2023/01/26 05:25:49;;;;;;;;;;;20.70;57.20;;;;;;1554683;75;808;-73
2023/01/26 05:27:52;;;;;;;;;;;20.70;57.10;;;;;;1545838;75;769;-72
2023/01/26 05:29:59;;;;;;;;;;;20.70;57.10;;;;;;1545116;75;732;-73
2023/01/26 05:31:58;;;;;;;;;;;20.70;57.20;;;;;;1557112;75;1617;-72
2023/01/26 05:33:59;;;;;;;;;;;20.70;57.20;;;;;;1556039;75;693;-72
2023/01/26 05:36:05;;;;;;;;;;;20.60;57.10;;;;;;1542342;75;757;-71
2023/01/26 05:38:07;;;;;;;;;;;20.70;57.20;;;;;;1556734;75;700;-72
2023/01/26 05:40:12;;;;;;;;;;;20.70;57.20;;;;;;1548259;76;1946;-67
2023/01/26 05:42:14;;;;;;;;;;;20.60;58.40;;;;;;1557148;75;1148;-67
2023/01/26 05:44:16;;;;;;;;;;;20.50;58.80;;;;;;1547599;75;775;-67
2023/01/26 05:46:17;;;;;;;;;;;20.40;59.30;;;;;;1559343;74;766;-67
2023/01/26 05:48:19;;;;;;;;;;;20.40;59.00;;;;;;1558355;76;788;-68
2023/01/26 05:50:21;;;;;;;;;;;20.50;59.00;;;;;;1551392;74;771;-67
2023/01/26 05:52:23;;;;;;;;;;;20.50;59.00;;;;;;1556302;74;1097;-66
2023/01/26 05:54:25;;;;;;;;;;;20.60;58.60;;;;;;1556395;74;746;-64
2023/01/26 05:56:27;;;;;;;;;;;20.60;58.50;;;;;;1562520;74;733;-67
2023/01/26 05:58:29;;;;;;;;;;;20.70;58.50;;;;;;1553189;74;719;-67
2023/01/26 06:00:31;;;;;;;;;;;20.60;58.30;;;;;;1559406;74;1928;-68
2023/01/26 06:02:33;;;;;;;;;;;20.70;58.50;;;;;;1557427;74;1145;-68
2023/01/26 06:04:34;;;;;;;;;;;20.60;58.70;;;;;;1560172;75;794;-69
2023/01/26 06:06:36;;;;;;;;;;;20.50;58.90;;;;;;1561566;74;1530;-67
2023/01/26 06:08:38;;;;;;;;;;;20.50;58.90;;;;;;1555195;74;780;-67
2023/01/26 06:10:40;;;;;;;;;;;20.50;58.90;;;;;;1534287;76;804;-67
2023/01/26 06:12:42;;;;;;;;;;;20.50;59.10;;;;;;1527960;76;1130;-67
2023/01/26 06:14:44;;;;;;;;;;;20.60;59.10;;;;;;1553097;75;687;-67
2023/01/26 06:16:46;;;;;;;;;;;20.50;59.20;;;;;;1558768;75;747;-68
2023/01/26 06:18:48;;;;;;;;;;;20.50;59.30;;;;;;1554558;75;766;-66
2023/01/26 06:20:50;;;;;;;;;;;20.40;59.30;;;;;;1559180;75;1931;-66
2023/01/26 06:22:52;;;;;;;;;;;20.40;59.10;;;;;;1507952;73;2142;-70
2023/01/26 06:24:54;;;;;;;;;;;20.50;58.90;;;;;;1490014;78;734;-68
2023/01/26 06:26:56;;;;;;;;;;;20.70;58.60;;;;;;1470933;79;725;-67
2023/01/26 06:28:58;;;;;;;;;;;20.70;58.40;;;;;;1502811;77;762;-71
2023/01/26 06:31:00;;;;;;;;;;;20.70;58.20;;;;;;1508335;77;705;-67
2023/01/26 06:33:02;;;;;;;;;;;20.80;57.60;;;;;;1511816;77;1231;-67
2023/01/26 06:35:05;;;;;;;;;;;20.80;57.40;;;;;;1512564;77;705;-67
2023/01/26 06:37:07;;;;;;;;;;;20.80;57.30;;;;;;1513395;77;681;-67
2023/01/26 06:39:09;;;;;;;;;;;20.80;57.30;;;;;;1504490;77;712;-68
2023/01/26 06:41:11;;;;;;;;;;;20.80;57.00;;;;;;1513309;77;1941;-66
2023/01/26 06:43:13;;;;;;;;;;;20.70;57.20;;;;;;1512226;77;1144;-66
2023/01/26 06:45:15;;;;;;;;;;;20.60;58.10;;;;;;1512646;77;698;-66
2023/01/26 06:47:17;;;;;;;;;;;20.70;58.60;;;;;;1509953;77;741;-66
2023/01/26 06:49:19;;;;;;;;;;;20.50;58.60;;;;;;1513204;77;697;-67
2023/01/26 06:51:22;;;;;;;;;;;20.50;58.80;;;;;;1510527;77;862;-68
2023/01/26 06:53:26;;;;;;;;;;;20.60;58.60;;;;;;1513141;77;1128;-67
2023/01/26 06:55:37;;;;;;;;;;;20.60;58.40;;;;;;1513347;77;747;-68
2023/01/26 06:57:39;;;;;;;;;;;20.70;58.20;;;;;;1499808;77;755;-67
2023/01/26 06:59:41;;;;;;;;;;;20.70;57.50;;;;;;1505310;77;712;-67
2023/01/26 07:01:43;;;;;;;;;;;20.70;57.20;;;;;;1506301;77;1946;-67
2023/01/26 07:03:47;;;;;;;;;;;20.70;56.70;;;;;;1508738;77;1499;-66
2023/01/26 07:05:49;;;;;;;;;;;20.80;56.30;;;;;;1497494;77;818;-67
2023/01/26 07:07:51;;;;;;;;;;;20.70;56.30;;;;;;1504575;77;801;-67
2023/01/26 07:09:52;;;;;;;;;;;20.70;56.20;;;;;;1513473;77;717;-70
2023/01/26 07:11:54;;;;;;;;;;;20.70;56.00;;;;;;1507189;77;1269;-68
2023/01/26 07:13:56;;;;;;;;;;;20.70;55.90;;;;;;1506463;77;723;-70
2023/01/26 07:16:03;;;;;;;;;;;20.70;55.70;;;;;;1508771;77;698;-69
2023/01/26 07:18:05;;;;;;;;;;;20.80;55.60;;;;;;1513248;77;764;-69
2023/01/26 07:20:07;;;;;;;;;;;20.80;55.40;;;;;;1510787;77;632;-69
2023/01/26 07:22:09;;;;;;;;;;;20.70;55.30;;;;;;1508009;77;1936;-73
2023/01/26 07:24:11;;;;;;;;;;;20.80;55.20;;;;;;1504601;77;776;-67
2023/01/26 07:26:13;;;;;;;;;;;20.70;55.40;;;;;;1509386;77;640;-68
2023/01/26 07:28:15;;;;;;;;;;;20.80;55.30;;;;;;1505977;77;610;-67
2023/01/26 07:30:16;;;;;;;;;;;20.70;55.20;;;;;;1504189;77;654;-67
2023/01/26 07:32:18;;;;;;;;;;;20.70;55.30;;;;;;1508392;77;1210;-68
2023/01/26 07:34:20;;;;;;;;;;;20.80;55.20;;;;;;1502009;77;643;-69
2023/01/26 07:36:22;;;;;;;;;;;20.70;55.30;;;;;;1496357;77;682;-69
2023/01/26 07:38:24;;;;;;;;;;;20.70;55.20;;;;;;1503786;77;658;-74
2023/01/26 07:40:26;;;;;;;;;;;20.70;55.20;;;;;;1509350;77;766;-67
2023/01/26 07:42:29;;;;;;;;;;;20.70;55.20;;;;;;1503307;77;1943;-67
2023/01/26 07:44:31;;;;;;;;;;;20.70;55.20;;;;;;1509026;77;738;-65
2023/01/26 07:46:33;;;;;;;;;;;20.70;55.10;;;;;;1510506;77;801;-68
2023/01/26 07:48:35;;;;;;;;;;;20.70;54.40;;;;;;1517237;77;769;-67
2023/01/26 07:50:37;;;;;;;;;;;20.60;53.40;;;;;;1507814;77;810;-66
2023/01/26 07:52:39;;;;;;;;;;;20.50;53.10;;;;;;1509663;77;1182;-67
2023/01/26 07:54:41;;;;;;;;;;;20.50;52.60;;;;;;1499216;77;811;-67
2023/01/26 07:56:43;;;;;;;;;;;20.50;53.30;;;;;;1503082;77;766;-65
2023/01/26 07:58:47;;;;;;;;;;;20.50;53.00;;;;;;1501254;77;1454;-66
2023/01/26 08:00:49;;;;;;;;;;;20.40;53.40;;;;;;1505569;77;2072;-67
2023/01/26 08:02:50;;;;;;;;;;;20.50;53.60;;;;;;1513114;77;1981;-66
2023/01/26 08:04:52;;;;;;;;;;;20.50;53.70;;;;;;1511085;77;792;-72
2023/01/26 08:06:54;;;;;;;;;;;20.50;53.70;;;;;;1506740;77;742;-69
2023/01/26 08:08:56;;;;;;;;;;;20.60;53.50;;;;;;1510775;77;738;-64
2023/01/26 08:10:59;;;;;;;;;;;20.60;52.90;;;;;;1509838;77;687;-66
2023/01/26 08:13:01;;;;;;;;;;;20.60;52.50;;;;;;1505045;77;1174;-68
2023/01/26 08:15:03;;;;;;;;;;;20.60;52.60;;;;;;1504507;77;716;-65
2023/01/26 08:17:05;;;;;;;;;;;20.60;52.80;;;;;;1508711;77;786;-66
2023/01/26 08:19:07;;;;;;;;;;;20.50;53.00;;;;;;1502338;77;1029;-66
2023/01/26 08:21:09;;;;;;;;;;;20.50;53.10;;;;;;1512754;77;1913;-64
2023/01/26 08:23:11;;;;;;;;;;;20.60;53.30;;;;;;1499585;77;1178;-66
2023/01/26 08:25:13;;;;;;;;;;;20.50;53.40;;;;;;1499654;77;860;-66
2023/01/26 08:27:16;;;;;;;;;;;20.40;53.40;;;;;;1508200;77;687;-67
2023/01/26 08:29:19;;;;;;;;;;;20.40;53.60;;;;;;1507660;77;636;-66
2023/01/26 08:31:23;;;;;;;;;;;20.40;53.70;;;;;;1511598;77;660;-66
2023/01/26 08:33:25;;;;;;;;;;;20.40;53.80;;;;;;1501041;77;1220;-68
2023/01/26 08:35:27;;;;;;;;;;;20.50;54.00;;;;;;1511497;77;787;-66
2023/01/26 08:37:29;;;;;;;;;;;20.40;54.00;;;;;;1492246;77;780;-65
2023/01/26 08:39:30;;;;;;;;;;;20.40;54.10;;;;;;1505930;77;731;-66
2023/01/26 08:41:32;;;;;;;;;;;20.40;54.30;;;;;;1511653;77;1940;-67
2023/01/26 08:43:34;;;;;;;;;;;20.40;54.30;;;;;;1508298;77;1080;-66
2023/01/26 08:45:36;;;;;;;;;;;20.40;54.30;;;;;;1496096;77;745;-66
2023/01/26 08:47:38;;;;;;;;;;;20.40;54.30;;;;;;1498794;77;761;-66
2023/01/26 08:49:40;;;;;;;;;;;20.50;54.40;;;;;;1501383;77;650;-67
2023/01/26 08:51:42;;;;;;;;;;;20.40;54.40;;;;;;1500550;77;694;-68
2023/01/26 08:53:44;;;;;;;;;;;20.40;54.40;;;;;;1496282;77;1165;-66
2023/01/26 08:55:46;;;;;;;;;;;20.40;54.40;;;;;;1510296;77;1505;-66
2023/01/26 08:57:49;;;;;;;;;;;20.40;54.50;;;;;;1506712;77;770;-65
2023/01/26 08:59:51;;;;;;;;;;;20.50;54.50;;;;;;1510050;77;1998;-65
2023/01/26 09:01:54;;;;;;;;;;;20.40;54.50;;;;;;1508527;77;1941;-65
2023/01/26 09:03:57;;;;;;;;;;;20.50;54.60;;;;;;1506810;77;726;-69
2023/01/26 09:06:00;;;;;;;;;;;20.40;54.50;;;;;;1505579;77;756;-68
2023/01/26 09:08:02;;;;;;;;;;;20.40;54.50;;;;;;1507506;77;709;-69
2023/01/26 09:10:04;;;;;;;;;;;20.40;54.70;;;;;;1512140;77;740;-70
2023/01/26 09:12:06;;;;;;;;;;;20.40;54.70;;;;;;1512321;77;1163;-69
2023/01/26 09:14:08;;;;;;;;;;;20.40;54.80;;;;;;1510352;77;677;-69
2023/01/26 09:16:11;;;;;;;;;;;20.40;54.90;;;;;;1495634;77;749;-71
2023/01/26 09:18:13;;;;;;;;;;;20.40;55.00;;;;;;1505168;77;730;-68
2023/01/26 09:20:15;;;;;;;;;;;20.40;55.00;;;;;;1508196;77;721;-69
2023/01/26 09:22:17;;;;;;;;;;;20.40;55.00;;;;;;1509119;77;1941;-69
2023/01/26 09:24:21;;;;;;;;;;;20.40;55.00;;;;;;1502566;77;809;-68
2023/01/26 09:26:23;;;;;;;;;;;20.40;55.00;;;;;;1504391;77;952;-71
2023/01/26 09:28:24;;;;;;;;;;;20.50;55.00;;;;;;1505027;77;731;-67
2023/01/26 09:30:26;;;;;;;;;;;20.50;54.90;;;;;;1502526;77;737;-67
2023/01/26 09:32:28;;;;;;;;;;;20.50;54.80;;;;;;1500289;77;1204;-67
2023/01/26 09:34:30;;;;;;;;;;;20.50;54.90;;;;;;1506875;77;721;-66
2023/01/26 09:36:32;;;;;;;;;;;20.50;54.90;;;;;;1511212;77;704;-67
2023/01/26 09:38:34;;;;;;;;;;;20.50;55.00;;;;;;1507121;77;753;-66
2023/01/26 09:40:50;;;;;;;;;;;20.50;54.90;;;;;;1504969;77;667;-67
2023/01/26 09:43:08;;;;;;;;;;;20.50;54.90;;;;;;1510957;77;1919;-67
2023/01/26 09:45:15;;;;;;;;;;;20.50;54.80;;;;;;1512845;77;739;-69
2023/01/26 09:47:19;;;;;;;;;;;20.50;54.80;;;;;;1502563;77;1147;-68
2023/01/26 09:49:21;;;;;;;;;;;20.50;54.90;;;;;;1503489;77;1148;-73
2023/01/26 09:51:25;;;;;;;;;;;20.50;54.80;;;;;;1505176;77;1443;-69
2023/01/26 09:53:45;;;;;;;;;;;20.50;54.80;;;;;;1505327;77;1148;-70
2023/01/26 09:55:47;;;;;;;;;;;20.50;54.80;;;;;;1501664;77;753;-69
2023/01/26 09:57:50;;;;;;;;;;;20.50;54.70;;;;;;1500623;77;673;-70
2023/01/26 09:59:56;;;;;;;;;;;20.50;54.80;;;;;;1509621;77;759;-70
2023/01/26 10:02:02;;;;;;;;;;;20.50;54.80;;;;;;1511970;77;1931;-67
2023/01/26 10:04:06;;;;;;;;;;;20.40;54.90;;;;;;1501284;77;752;-67
2023/01/26 10:06:09;;;;;;;;;;;20.50;55.00;;;;;;1507621;77;1137;-69
2023/01/26 10:08:12;;;;;;;;;;;20.50;55.10;;;;;;1500796;77;659;-67
2023/01/26 10:10:16;;;;;;;;;;;20.60;55.10;;;;;;1505579;77;711;-69
2023/01/26 10:12:24;;;;;;;;;;;20.60;55.00;;;;;;1509495;77;1182;-66
2023/01/26 10:14:29;;;;;;;;;;;20.60;55.20;;;;;;1501513;77;718;-67
2023/01/26 10:16:32;;;;;;;;;;;20.50;55.10;;;;;;1502283;77;1197;-67
2023/01/26 10:18:38;;;;;;;;;;;20.60;55.10;;;;;;1505080;77;679;-66
2023/01/26 10:20:42;;;;;;;;;;;20.60;55.00;;;;;;1503476;77;1175;-67
2023/01/26 10:22:44;;;;;;;;;;;20.50;55.00;;;;;;1511023;77;1941;-66
2023/01/26 10:24:46;;;;;;;;;;;20.50;55.00;;;;;;1506764;77;824;-67
2023/01/26 10:26:49;;;;;;;;;;;20.60;55.00;;;;;;1504465;77;751;-66
2023/01/26 10:28:51;;;;;;;;;;;20.60;55.00;;;;;;1502840;77;732;-67
2023/01/26 10:30:53;;;;;;;;;;;20.60;55.00;;;;;;1509243;77;745;-66
2023/01/26 10:32:55;;;;;;;;;;;20.60;54.90;;;;;;1506580;77;1204;-67
2023/01/26 10:34:56;;;;;;;;;;;20.60;54.90;;;;;;1504270;77;688;-68
2023/01/26 10:37:02;;;;;;;;;;;20.60;54.90;;;;;;1494538;77;745;-68
2023/01/26 10:39:11;;;;;;;;;;;20.70;55.00;;;;;;1488539;78;719;-66
2023/01/26 10:41:17;;;;;;;;;;;20.60;54.90;;;;;;1508268;77;699;-68
2023/01/26 10:43:19;;;;;;;;;;;20.60;54.80;;;;;;1503814;77;1948;-67
2023/01/26 10:45:25;;;;;;;;;;;20.60;54.90;;;;;;1504421;77;756;-70
2023/01/26 10:47:27;;;;;;;;;;;20.60;54.80;;;;;;1505121;77;749;-68
2023/01/26 10:49:29;;;;;;;;;;;20.60;54.80;;;;;;1511763;77;743;-68
2023/01/26 10:51:32;;;;;;;;;;;20.60;54.80;;;;;;1503815;77;727;-69
2023/01/26 10:53:34;;;;;;;;;;;20.60;54.70;;;;;;1494551;77;1133;-67
2023/01/26 10:55:36;;;;;;;;;;;20.60;54.70;;;;;;1506532;77;743;-69
2023/01/26 10:57:38;;;;;;;;;;;20.70;54.70;;;;;;1507048;77;695;-66
2023/01/26 10:59:45;;;;;;;;;;;20.60;54.70;;;;;;1508976;77;731;-67
2023/01/26 11:01:57;;;;;;;;;;;20.60;54.70;;;;;;1504731;77;1153;-67
2023/01/26 11:04:01;;;;;;;;;;;20.60;54.70;;;;;;1472123;77;1932;-67
2023/01/26 11:06:16;;;;;;;;;;;20.70;54.90;;;;;;1503604;77;698;-66
2023/01/26 11:08:36;;;;;;;;;;;20.60;54.80;;;;;;1506351;77;748;-66
2023/01/26 11:10:39;;;;;;;;;;;20.60;54.80;;;;;;1507741;77;1103;-68
2023/01/26 11:12:40;;;;;;;;;;;20.70;54.90;;;;;;1510799;77;1101;-67
2023/01/26 11:14:42;;;;;;;;;;;20.70;54.80;;;;;;1508956;77;579;-67
2023/01/26 11:16:48;;;;;;;;;;;20.70;54.90;;;;;;1498033;77;756;-72
2023/01/26 11:18:54;;;;;;;;;;;20.70;55.00;;;;;;1510117;77;681;-67
2023/01/26 11:21:00;;;;;;;;;;;20.70;55.00;;;;;;1505631;77;1008;-67
2023/01/26 11:23:04;;;;;;;;;;;20.70;55.10;;;;;;1497508;77;1938;-67
2023/01/26 11:25:13;;;;;;;;;;;20.70;55.10;;;;;;1506364;77;813;-68
2023/01/26 11:27:29;;;;;;;;;;;20.60;55.00;;;;;;1504122;77;700;-67
2023/01/26 11:29:41;;;;;;;;;;;20.60;55.00;;;;;;1468125;77;1037;-68
2023/01/26 11:32:01;;;;;;;;;;;20.60;54.90;;;;;;1506312;77;692;-66
2023/01/26 11:34:11;;;;;;;;;;;20.70;55.00;;;;;;1503649;77;802;-66
2023/01/26 11:36:15;;;;;;;;;;;20.70;55.20;;;;;;1498761;78;1077;-67
2023/01/26 11:38:35;;;;;;;;;;;20.70;55.10;;;;;;1501615;77;709;-67
2023/01/26 11:40:44;;;;;;;;;;;20.70;55.10;;;;;;1502044;77;744;-67
2023/01/26 11:42:48;;;;;;;;;;;20.70;55.10;;;;;;1494675;77;1937;-74
2023/01/26 11:45:03;;;;;;;;;;;20.70;55.20;;;;;;1509373;77;1388;-65
2023/01/26 11:47:22;;;;;;;;;;;20.60;55.00;;;;;;1509017;77;1599;-65
2023/01/26 11:49:28;;;;;;;;;;;20.70;55.20;;;;;;1509581;77;755;-66
2023/01/26 11:51:49;;;;;;;;;;;20.60;55.00;;;;;;1508475;77;930;-65
2023/01/26 11:53:52;;;;;;;;;;;20.60;55.10;;;;;;1506259;77;698;-64
2023/01/26 11:55:56;;;;;;;;;;;20.60;55.10;;;;;;1511375;77;1135;-69
2023/01/26 11:58:02;;;;;;;;;;;20.70;55.20;;;;;;1510945;77;685;-65
2023/01/26 12:00:05;;;;;;;;;;;20.70;55.20;;;;;;1510102;77;728;-65
2023/01/26 12:02:25;;;;;;;;;;;20.70;55.20;;;;;;1493421;77;1216;-65
2023/01/26 12:04:27;;;;;;;;;;;20.70;55.10;;;;;;1499009;77;765;-66
2023/01/26 12:06:31;;;;;;;;;;;20.70;55.20;;;;;;1503017;77;705;-68
2023/01/26 12:08:37;;;;;;;;;;;20.70;55.10;;;;;;1507238;77;725;-66
2023/01/26 12:10:40;;;;;;;;;;;20.70;55.10;;;;;;1507486;77;667;-66
2023/01/26 12:12:44;;;;;;;;;;;20.70;55.10;;;;;;1501634;77;1192;-65
2023/01/26 12:15:05;;;;;;;;;;;20.80;55.10;;;;;;1520395;77;702;-68
2023/01/26 12:17:17;;;;;;;;;;;20.60;54.90;;;;;;1504661;74;690;-66
2023/01/26 12:19:25;;;;;;;;;;;20.70;55.10;;;;;;1501587;77;714;-66
2023/01/26 12:21:27;;;;;;;;;;;20.60;55.00;;;;;;1512535;77;967;-65
2023/01/26 12:23:45;;;;;;;;;;;20.60;54.90;;;;;;1537888;73;229939;-60
2023/01/26 12:25:48;;;;;;;;;;;20.60;55.00;;;;;;1584976;73;780;-60
2023/01/26 12:28:08;;;;;;;;;;;20.70;55.10;;;;;;1595383;73;717;-60
2023/01/26 12:30:12;;;;;;;;;;;20.60;55.00;;;;;;1575093;73;1193;-61
2023/01/26 12:32:15;;;;;;;;;;;20.70;55.10;;;;;;1564775;74;1691;-60
2023/01/26 12:34:17;;;;;;;;;;;20.60;55.00;;;;;;1567297;74;829;-60
2023/01/26 12:36:37;;;;;;;;;;;20.70;55.10;;;;;;1571919;74;725;-60
2023/01/26 12:38:41;;;;;;;;;;;20.70;55.00;;;;;;1571290;74;728;-60
2023/01/26 12:40:53;;;;;;;;;;;20.60;54.90;;;;;;1568379;74;1634;-61
2023/01/26 12:42:59;;;;;;;;;;;20.60;54.80;;;;;;1562860;74;1959;-60
2023/01/26 12:45:01;;;;;;;;;;;20.60;54.90;;;;;;1566479;74;1755;-60
2023/01/26 12:47:05;;;;;;;;;;;20.60;54.80;;;;;;1567199;74;769;-60
2023/01/26 12:49:18;;;;;;;;;;;20.70;55.00;;;;;;1567111;74;1132;-60
2023/01/26 12:51:22;;;;;;;;;;;20.60;54.80;;;;;;1566700;74;746;-60
2023/01/26 12:53:29;;;;;;;;;;;20.60;54.70;;;;;;1580115;74;754;-64
2023/01/26 12:55:30;;;;;;;;;;;20.60;54.80;;;;;;1567286;74;1396;-62
2023/01/26 12:57:52;;;;;;;;;;;20.70;54.90;;;;;;1566793;74;804;-63
2023/01/26 12:59:55;;;;;;;;;;;20.70;54.90;;;;;;1567355;74;1141;-63
2023/01/26 13:01:57;;;;;;;;;;;20.60;55.00;;;;;;1566118;74;1651;-62
2023/01/26 13:04:00;;;;;;;;;;;20.60;54.90;;;;;;1567731;74;1926;-63
2023/01/26 13:06:04;;;;;;;;;;;20.70;55.00;;;;;;1567663;74;814;-64